Northeast Philadelphia Airport
KPNE : now visible

Aeroporto :











RITROVATECI SU...

 
LOGIN :

Iscrizione | Disclaimer

   EN    FR    IT 

 









Sommario :    VFR   VFR Marginale   IFR   IFR Intensivo   IFR Molto Intensivo
Visibilità : 
Base nubi : 
>= 8 km
>= 3000ft
5 / 8 km
1000 / 3000 ft
1500m / 5 km
500 / 1000 ft
800 / 1500m
200 / 500 ft
< 800m
< 200 ft
Simboli :   Temporali  Nebbia  Neve Forte  Precipitazioni Forti  Vento > 20 kt







- Altitudine del aeroporto : 120 ft


KPNE - Northeast Philadelphia

ULTIMO METAR :
  • 250354Z AUTO 00000KT 10SM CLR 18/11 A3025 RMK AO2 SLP242 T01780111

METARs OBSOLETI :
  • 250254Z 01003KT 10SM CLR 18/11 A3024 RMK AO2 SLP241 T01830111 51014
  • 250154Z 02004KT 10SM CLR 19/11 A3023 RMK AO2 SLP236 T01890111

TAF KPNE
Valido dal 25 a 00 ore il 26 a 00 ore UTC


242325Z 2500/2524 03006KT P6SM SKC
FM251200 05008KT P6SM SCT050
FM251400 06013KT P6SM BKN040
Nessun NOTAM noto per questo aeroporto.



MetMap, La meteo Aeronautica in un colpo d'occhio ! - Copyright ORBIFLY Dicembre 2007 - Disclaimer

ORBIFLY MET'MAP TEAM :

Programmazione e sviluppo : Alexandra Zaïnal
Concezione e sviluppo : Baudouin d'Aumeries
Co-Programmazione e sviluppo : Marc-Olivier Méhu
Supporto tecnico e logistico : Manuel Goepfert
Aiuto per la traduzione : Arnaldo La Scala

Contatto : metmap@orbifly.com




FONTI E CREDITI :

   NOAA       Earth
Advisory